Aeroporto :
LOGIN :

Iscrizione | Disclaimer

   EN    FR    IT 

 










Sommario :    VFR   VFR Marginale   IFR   IFR Intensivo   IFR Molto Intensivo
Visibilità : 
Base nubi : 
>= 8 km
>= 3000ft
5 / 8 km
1000 / 3000 ft
1500m / 5 km
500 / 1000 ft
800 / 1500m
200 / 500 ft
< 800m
< 200 ft
Simboli :   Temporali  Nebbia  Neve Forte  Precipitazioni Forti  Vento > 20 kt
SIGMETs :   Varie  Temporali  Ghiacco  Turbolenza  Onda orograficha  Ceneri Vulcaniche







- Altitudine del aeroporto : 177 ft
- Codice IATA : BRI


LIBD - Palese Macchie Bari

ULTIMO METAR :
  • 250650Z 33011KT 310V010 CAVOK 27/19 Q1017

METARs OBSOLETI :
  • 250620Z 33011KT CAVOK 26/19 Q1017
  • 250550Z 32011KT CAVOK 25/19 Q1017
  • 250520Z 31010KT CAVOK 25/18 Q1016
  • 250450Z 30009KT CAVOK 24/18 Q1016
  • 250420Z 31008KT CAVOK 23/18 Q1016

TAF TAF LIBD
Valido dal 25 a 06 ore il 26 a 06 ore UTC


250500Z 2506/2606 30010KT CAVOK
BECMG 2508/2510 01014KT
BECMG 2518/2520 28008KT
Nessun NOTAM noto per questo aeroporto.



MetMap, La meteo Aeronautica in un colpo d'occhio ! - Copyright ORBIFLY Dicembre 2007 - Disclaimer

ORBIFLY MET'MAP TEAM :

Programmazione e sviluppo : Alexandra Zaïnal
Concezione e sviluppo : Baudouin d'Aumeries
Co-Programmazione e sviluppo : Marc-Olivier Méhu
Supporto tecnico e logistico : Manuel Goepfert
Aiuto per la traduzione : Arnaldo La Scala

Contatto : metmap@orbifly.com




FONTI E CREDITI :

   NOAA